KAQW/AQW METAR and TAF weather

Enter ICAO airport designator
Station Type Date Time Source
KAQW METAR 2018/01/22 11:52 UTC NOAA

KAQW 221152Z AUTO 00000KT 2 1/2SM UP BR OVC008 00/M01 A3017 RMK AO2 UPE1053B13 SLP226 P0000 60001 70001 I6001 T00001006 10000 21006 52010


Station Type Date Time Source
KAQW Decoded METAR 2018/01/22 11:52 UTC NOAA

N ADAMS HARRIMAN-AND-WEST, MA, United States (KAQW) 42-42N 073-10W 201M
Jan 22, 2018 - 06:52 AM EST / 2018.01.22 1152 UTC
Wind: Calm:0
Visibility: 2 1/2 mile(s):0
Sky conditions: overcast
Weather: precipitation; mist
Precipitation last hour: A trace
Temperature: 32.0 F (0.0 C)
Dew Point: 30.9 F (-0.6 C)
Relative Humidity: 95%
Pressure (altimeter): 30.17 in. Hg (1021 hPa)
Pressure tendency: 0.03 inches (1.0 hPa) higher than three hours ago
ob: KAQW 221152Z AUTO 00000KT 2 1/2SM UP BR OVC008 00/M01 A3017 RMK AO2 UPE1053B13 SLP226 P0000 60001 70001 I6001 T00001006 10000 21006 52010
cycle: 12

Station Type Date Time Source
KAQW TAF UTC NOAA

Error!


Example: see airport list